Time;durP1;ratioP1;P1;durP2;ratioP2;P2;SDS_P1;SDS_P2;PMS_P1;PMS_P2;Temp;Humidity;BMP_temperature;BMP_pressure;BME280_temperature;BME280_humidity;BME280_pressure;Samples;Min_cycle;Max_cycle;Signal;HPM_P1;HPM_P2
2022/11/13 00:00:22;;;;;;;40.55;25.88;;;5.30;99.90;;;;;;5113593;27;20040;-79
2022/11/13 00:02:47;;;;;;;38.97;24.40;;;5.40;99.90;;;;;;5084839;28;20463;-87
2022/11/13 00:05:13;;;;;;;37.05;23.85;;;5.30;99.90;;;;;;5066091;28;20482;-80
2022/11/13 00:07:38;;;;;;;35.33;24.48;;;5.30;99.90;;;;;;5065001;28;20043;-84
2022/11/13 00:10:05;;;;;;;36.72;23.77;;;5.30;99.90;;;;;;5080574;28;20123;-83
2022/11/13 00:12:30;;;;;;;38.42;24.73;;;5.30;99.90;;;;;;5085186;28;20082;-80
2022/11/13 00:14:56;;;;;;;36.85;24.17;;;5.30;99.90;;;;;;5066369;28;20071;-82
2022/11/13 00:17:21;;;;;;;38.47;25.60;;;5.20;99.90;;;;;;5067727;28;20624;-83
2022/11/13 00:19:47;;;;;;;36.85;25.95;;;5.10;99.90;;;;;;5082115;28;20048;-80
2022/11/13 00:22:13;;;;;;;37.28;26.55;;;5.20;99.90;;;;;;5081019;28;20142;-87
2022/11/13 00:24:38;;;;;;;45.53;28.77;;;5.20;99.90;;;;;;5080236;28;20044;-79
2022/11/13 00:27:04;;;;;;;45.45;28.95;;;5.40;99.90;;;;;;5067435;28;20151;-84
2022/11/13 00:29:30;;;;;;;43.15;29.48;;;5.40;99.90;;;;;;5081121;28;20051;-78
2022/11/13 00:31:55;;;;;;;48.15;28.67;;;5.60;99.90;;;;;;5062615;28;20152;-83
2022/11/13 00:34:21;;;;;;;43.97;28.17;;;5.60;99.90;;;;;;5083874;28;20043;-79
2022/11/13 00:36:46;;;;;;;40.80;28.20;;;5.70;99.90;;;;;;5085267;28;20044;-81
2022/11/13 00:39:12;;;;;;;41.67;27.27;;;5.50;99.90;;;;;;5067016;28;20048;-85
2022/11/13 00:41:38;;;;;;;39.90;27.83;;;5.60;99.90;;;;;;5083352;28;20052;-80
2022/11/13 00:44:04;;;;;;;43.92;26.55;;;5.60;99.90;;;;;;5073904;28;20050;-81
2022/11/13 00:46:30;;;;;;;38.10;26.55;;;5.70;99.90;;;;;;5115926;27;20040;-79
2022/11/13 00:48:55;;;;;;;40.63;25.92;;;5.70;99.90;;;;;;5090248;28;20044;-80
2022/11/13 00:51:21;;;;;;;42.25;26.90;;;5.60;99.90;;;;;;5084891;28;20070;-79
2022/11/13 00:53:47;;;;;;;41.38;25.30;;;5.60;99.90;;;;;;5079288;28;20109;-78
2022/11/13 00:56:13;;;;;;;40.30;25.00;;;5.70;99.90;;;;;;5102268;28;20055;-81
2022/11/13 00:58:38;;;;;;;40.35;25.27;;;5.60;99.90;;;;;;5066426;28;20048;-87
2022/11/13 01:01:10;;;;;;;38.67;25.75;;;5.60;99.90;;;;;;5071117;28;20040;-83
2022/11/13 01:03:36;;;;;;;42.08;26.92;;;5.70;99.90;;;;;;5066878;28;20036;-81
2022/11/13 01:06:22;;;;;;;40.00;27.02;;;5.80;99.90;;;;;;5088131;28;20029;-79
2022/11/13 01:08:48;;;;;;;45.13;27.05;;;5.90;99.90;;;;;;5097083;28;20044;-81
2022/11/13 01:11:17;;;;;;;41.47;26.55;;;6.00;99.90;;;;;;5067950;28;20098;-81
2022/11/13 01:13:46;;;;;;;44.45;26.85;;;6.10;99.90;;;;;;5085200;28;20135;-80
2022/11/13 01:16:13;;;;;;;40.08;26.30;;;6.20;99.90;;;;;;5087434;28;20059;-84
2022/11/13 01:18:41;;;;;;;39.58;26.73;;;6.20;99.90;;;;;;5083251;28;20040;-78
2022/11/13 01:21:20;;;;;;;38.78;26.05;;;6.30;99.90;;;;;;5083962;28;20067;-83
2022/11/13 01:23:46;;;;;;;40.58;27.67;;;6.30;99.90;;;;;;5114355;27;20051;-82
2022/11/13 01:26:13;;;;;;;38.92;25.50;;;6.30;99.90;;;;;;5063569;28;20043;-84
2022/11/13 01:28:40;;;;;;;41.40;27.52;;;6.30;99.90;;;;;;5095360;27;20135;-84
2022/11/13 01:31:07;;;;;;;39.05;26.77;;;6.40;99.90;;;;;;5063527;28;20457;-81
2022/11/13 01:33:34;;;;;;;42.78;28.38;;;6.40;99.90;;;;;;5117592;27;20040;-84
2022/11/13 01:36:10;;;;;;;45.42;29.65;;;6.40;99.90;;;;;;5097533;28;20134;-83
2022/11/13 01:38:36;;;;;;;46.70;29.17;;;6.50;99.90;;;;;;5065216;28;20063;-78
2022/11/13 01:41:01;;;;;;;41.20;28.20;;;6.40;99.90;;;;;;5084078;28;20068;-79
2022/11/13 01:43:30;;;;;;;43.50;29.88;;;6.60;99.90;;;;;;5086155;28;20032;-81
2022/11/13 01:46:12;;;;;;;44.25;29.70;;;6.60;99.90;;;;;;5068201;28;20135;-85
2022/11/13 01:48:42;;;;;;;39.13;28.77;;;6.60;99.90;;;;;;5116142;27;20487;-81
2022/11/13 01:51:17;;;;;;;42.88;28.95;;;6.50;99.90;;;;;;5081803;28;20127;-84
2022/11/13 01:53:45;;;;;;;41.55;29.40;;;6.60;99.90;;;;;;5084307;28;20427;-79
2022/11/13 01:56:12;;;;;;;44.10;29.77;;;6.60;99.90;;;;;;5098118;27;20066;-77
2022/11/13 01:58:39;;;;;;;43.42;28.85;;;6.60;99.90;;;;;;5100277;28;20071;-82
2022/11/13 02:01:05;;;;;;;42.90;27.77;;;6.70;99.90;;;;;;5077080;28;20085;-81
2022/11/13 02:03:31;;;;;;;40.65;27.27;;;6.80;99.90;;;;;;5116084;27;20040;-82
2022/11/13 02:05:56;;;;;;;42.38;26.00;;;6.80;99.90;;;;;;5082023;28;20123;-78
2022/11/13 02:08:22;;;;;;;39.75;25.67;;;6.80;99.90;;;;;;5081541;28;20040;-79
2022/11/13 02:10:48;;;;;;;41.78;24.98;;;6.80;99.90;;;;;;5060357;28;20051;-80
2022/11/13 02:13:15;;;;;;;37.92;24.40;;;6.80;99.90;;;;;;5081059;28;20490;-81
2022/11/13 02:15:42;;;;;;;35.40;23.92;;;6.80;99.90;;;;;;5082733;28;20450;-80
2022/11/13 02:18:09;;;;;;;33.65;23.40;;;6.80;99.90;;;;;;5117480;27;20036;-81
2022/11/13 02:20:53;;;;;;;33.63;22.92;;;6.90;99.90;;;;;;5067851;28;20036;-82
2022/11/13 02:23:42;;;;;;;32.92;24.25;;;6.80;99.90;;;;;;5103996;28;20032;-83
2022/11/13 02:26:08;;;;;;;32.95;23.50;;;6.70;99.90;;;;;;5086305;28;20203;-79
2022/11/13 02:28:34;;;;;;;38.35;25.23;;;6.70;99.90;;;;;;5099021;27;20052;-79
2022/11/13 02:31:11;;;;;;;39.22;25.40;;;6.80;99.90;;;;;;5113216;27;20067;-82
2022/11/13 02:33:36;;;;;;;37.63;24.85;;;6.80;99.90;;;;;;5104261;27;20039;-85
2022/11/13 02:36:04;;;;;;;37.08;26.95;;;6.80;99.90;;;;;;5100090;27;20039;-82
2022/11/13 02:38:31;;;;;;;36.30;25.25;;;6.80;99.90;;;;;;5091845;28;20040;-83
2022/11/13 02:40:57;;;;;;;37.90;25.63;;;6.80;99.90;;;;;;5082450;28;20113;-82
2022/11/13 02:43:22;;;;;;;37.65;25.50;;;6.70;99.90;;;;;;5119271;27;20063;-80
2022/11/13 02:45:48;;;;;;;34.78;24.35;;;6.70;99.90;;;;;;5087120;28;20144;-81
2022/11/13 02:48:14;;;;;;;34.67;24.48;;;6.70;99.90;;;;;;5102912;28;20372;-81
2022/11/13 02:50:39;;;;;;;33.25;24.58;;;6.80;99.90;;;;;;5049470;28;20063;-82
2022/11/13 02:53:05;;;;;;;36.22;24.13;;;6.70;99.90;;;;;;5084163;28;20067;-78
2022/11/13 02:55:31;;;;;;;35.72;24.50;;;6.70;99.90;;;;;;5066161;28;20355;-79
2022/11/13 02:57:57;;;;;;;35.42;24.25;;;6.60;99.90;;;;;;5118063;27;20043;-80
2022/11/13 03:00:23;;;;;;;38.63;25.30;;;6.60;99.90;;;;;;5101521;28;20048;-80
2022/11/13 03:02:48;;;;;;;41.20;27.45;;;6.60;99.90;;;;;;5077074;28;20325;-78
2022/11/13 03:05:14;;;;;;;37.03;26.67;;;6.70;99.90;;;;;;5092814;28;20418;-79
2022/11/13 03:07:40;;;;;;;37.55;24.95;;;6.70;99.90;;;;;;5093564;28;20072;-80
2022/11/13 03:10:07;;;;;;;39.63;24.02;;;6.60;99.90;;;;;;5109427;28;20051;-79
2022/11/13 03:12:34;;;;;;;32.85;23.38;;;6.70;99.90;;;;;;5108543;28;20202;-81
2022/11/13 03:15:00;;;;;;;34.03;23.08;;;6.60;99.90;;;;;;5076371;28;20040;-77
2022/11/13 03:17:25;;;;;;;33.67;23.98;;;6.60;99.90;;;;;;5072775;28;20060;-77
2022/11/13 03:19:51;;;;;;;30.38;22.10;;;6.60;99.90;;;;;;5102656;28;20044;-79
2022/11/13 03:22:16;;;;;;;33.15;23.65;;;6.70;99.90;;;;;;5088953;28;20028;-83
2022/11/13 03:24:42;;;;;;;30.50;22.73;;;6.70;99.90;;;;;;5087187;28;20040;-78
2022/11/13 03:27:08;;;;;;;30.27;22.52;;;6.80;99.90;;;;;;5098719;27;20130;-82
2022/11/13 03:29:33;;;;;;;33.08;21.73;;;6.70;99.90;;;;;;5082101;28;20123;-84
2022/11/13 03:31:59;;;;;;;33.33;21.52;;;6.70;99.90;;;;;;5080585;28;20085;-85
2022/11/13 03:34:25;;;;;;;31.95;21.52;;;6.60;99.90;;;;;;5082164;28;20039;-80
2022/11/13 03:36:50;;;;;;;29.88;21.13;;;6.70;99.90;;;;;;5082634;28;20053;-84
2022/11/13 03:39:16;;;;;;;26.67;20.13;;;6.70;99.90;;;;;;5085014;28;20126;-81
2022/11/13 03:41:42;;;;;;;27.75;20.65;;;6.70;99.90;;;;;;5074195;28;20032;-86
2022/11/13 03:44:07;;;;;;;30.42;20.70;;;6.70;99.90;;;;;;5094479;28;20089;-81
2022/11/13 03:46:33;;;;;;;34.60;21.45;;;6.60;99.90;;;;;;5074267;28;20036;-80
2022/11/13 03:48:59;;;;;;;30.48;21.45;;;6.50;99.90;;;;;;5093683;28;20077;-85
2022/11/13 03:51:24;;;;;;;34.85;20.70;;;6.40;99.90;;;;;;5096754;28;20246;-79
2022/11/13 03:54:08;;;;;;;28.23;20.67;;;6.40;99.90;;;;;;5097880;28;20083;-78
2022/11/13 03:56:34;;;;;;;33.95;21.83;;;6.40;99.90;;;;;;5067893;28;20036;-82
2022/11/13 03:59:00;;;;;;;32.00;21.38;;;6.50;99.90;;;;;;5085904;28;20081;-81
2022/11/13 04:01:25;;;;;;;28.67;21.58;;;6.50;99.90;;;;;;5078459;28;20040;-83
2022/11/13 04:03:51;;;;;;;33.05;22.52;;;6.40;99.90;;;;;;5098936;28;21469;-81
2022/11/13 04:06:16;;;;;;;29.58;21.15;;;6.50;99.90;;;;;;5079367;28;20127;-81
2022/11/13 04:08:42;;;;;;;28.63;21.40;;;6.40;99.90;;;;;;5082314;28;20204;-81
2022/11/13 04:11:10;;;;;;;26.80;19.70;;;6.40;99.90;;;;;;5080957;28;20501;-80
2022/11/13 04:13:36;;;;;;;30.67;21.75;;;6.50;99.90;;;;;;5082851;28;20043;-81
2022/11/13 04:16:02;;;;;;;27.77;20.27;;;6.50;99.90;;;;;;5082705;28;21632;-81
2022/11/13 04:18:28;;;;;;;31.63;20.80;;;6.40;99.90;;;;;;5095731;28;20105;-79
2022/11/13 04:21:03;;;;;;;26.73;19.95;;;6.50;99.90;;;;;;5082322;28;20040;-77
2022/11/13 04:23:29;;;;;;;27.98;20.88;;;6.40;99.90;;;;;;5081156;28;20031;-79
2022/11/13 04:25:55;;;;;;;26.17;20.42;;;6.30;99.90;;;;;;5093510;28;20446;-80
2022/11/13 04:28:20;;;;;;;28.25;19.88;;;6.30;99.90;;;;;;5111086;27;20045;-85
2022/11/13 04:30:46;;;;;;;29.45;20.35;;;6.40;99.90;;;;;;5095556;28;20485;-82
2022/11/13 04:33:12;;;;;;;29.85;19.75;;;6.40;99.90;;;;;;5062523;28;21765;-79
2022/11/13 04:35:40;;;;;;;29.35;19.85;;;6.40;99.90;;;;;;5080749;28;20445;-84
2022/11/13 04:38:06;;;;;;;26.83;19.90;;;6.50;99.90;;;;;;5085216;28;20055;-80
2022/11/13 04:40:32;;;;;;;26.77;20.08;;;6.40;99.90;;;;;;5113172;27;20430;-77
2022/11/13 04:42:58;;;;;;;28.83;19.35;;;6.40;99.90;;;;;;5090790;28;20047;-80
2022/11/13 04:45:26;;;;;;;32.42;20.05;;;6.40;99.90;;;;;;5063072;28;20068;-82
2022/11/13 04:47:52;;;;;;;26.17;20.02;;;6.30;99.90;;;;;;5110439;27;20048;-82
2022/11/13 04:50:18;;;;;;;27.00;19.75;;;6.40;99.90;;;;;;5063116;28;20040;-82
2022/11/13 04:52:44;;;;;;;28.58;19.30;;;6.30;99.90;;;;;;5087724;28;20071;-88
2022/11/13 04:55:10;;;;;;;27.48;19.77;;;6.30;99.90;;;;;;5068124;28;20047;-79
2022/11/13 04:57:36;;;;;;;26.70;19.67;;;6.20;99.90;;;;;;5094630;28;20047;-83
2022/11/13 05:00:04;;;;;;;28.17;19.92;;;6.20;99.90;;;;;;5084469;28;20035;-79
2022/11/13 05:02:30;;;;;;;34.13;19.65;;;6.20;99.90;;;;;;5079154;28;20102;-78
2022/11/13 05:04:56;;;;;;;26.42;20.27;;;6.20;99.90;;;;;;5099161;28;20067;-86
2022/11/13 05:07:22;;;;;;;31.05;20.27;;;6.30;99.90;;;;;;5062926;28;20079;-86
2022/11/13 05:09:47;;;;;;;27.50;20.25;;;6.20;99.90;;;;;;5095581;28;20048;-79
2022/11/13 05:12:13;;;;;;;32.65;19.80;;;6.20;99.90;;;;;;5080700;28;20048;-87
2022/11/13 05:14:39;;;;;;;29.65;20.00;;;6.40;99.90;;;;;;5078890;28;20446;-81
2022/11/13 05:17:07;;;;;;;29.92;20.02;;;6.40;99.90;;;;;;5063201;28;20435;-79
2022/11/13 05:19:33;;;;;;;27.23;19.23;;;6.30;99.90;;;;;;5095720;28;20044;-79
2022/11/13 05:21:59;;;;;;;28.30;18.42;;;6.30;99.90;;;;;;5118221;27;20457;-83
2022/11/13 05:24:25;;;;;;;27.10;18.42;;;6.40;99.90;;;;;;5085471;28;20044;-82
2022/11/13 05:26:51;;;;;;;25.67;18.50;;;6.40;99.90;;;;;;5114317;27;20480;-80
2022/11/13 05:29:17;;;;;;;27.98;19.05;;;6.40;99.90;;;;;;5082581;28;20137;-82
2022/11/13 05:31:43;;;;;;;26.02;19.23;;;6.40;99.90;;;;;;5075894;28;20507;-81
2022/11/13 05:34:09;;;;;;;23.65;18.95;;;6.40;99.90;;;;;;5083945;28;20043;-84
2022/11/13 05:36:35;;;;;;;25.58;18.48;;;6.40;99.90;;;;;;5076760;28;20499;-82
2022/11/13 05:39:01;;;;;;;27.42;18.27;;;6.40;99.90;;;;;;5082589;28;20037;-79
2022/11/13 05:41:27;;;;;;;28.88;19.33;;;6.40;99.90;;;;;;5082751;28;20059;-79
2022/11/13 05:43:53;;;;;;;26.70;19.05;;;6.40;99.90;;;;;;5065604;28;20043;-81
2022/11/13 05:46:22;;;;;;;23.13;17.60;;;6.40;99.90;;;;;;5115430;27;20040;-85
2022/11/13 05:48:54;;;;;;;27.58;17.77;;;6.30;99.90;;;;;;5096248;28;20040;-78
2022/11/13 05:51:23;;;;;;;25.13;17.75;;;6.30;99.90;;;;;;5100668;28;20341;-79
2022/11/13 05:53:49;;;;;;;27.23;18.45;;;6.30;99.90;;;;;;5081677;28;20040;-82
2022/11/13 05:56:25;;;;;;;29.48;19.33;;;6.30;99.90;;;;;;5085248;28;20048;-79
2022/11/13 05:58:53;;;;;;;25.08;18.65;;;6.30;99.90;;;;;;5098965;28;20043;-80
2022/11/13 06:01:22;;;;;;;29.88;17.70;;;6.20;99.90;;;;;;5063026;28;20047;-80
2022/11/13 06:03:49;;;;;;;27.38;17.98;;;6.10;99.90;;;;;;5068737;28;20058;-81
2022/11/13 06:06:19;;;;;;;29.65;18.48;;;6.10;99.90;;;;;;5056820;28;20036;-85
2022/11/13 06:08:47;;;;;;;26.38;18.40;;;6.00;99.90;;;;;;5102464;28;20429;-79
2022/11/13 06:11:16;;;;;;;26.50;17.92;;;5.90;99.90;;;;;;5088373;28;20032;-82
2022/11/13 06:13:42;;;;;;;25.45;18.13;;;5.90;99.90;;;;;;5063560;28;20524;-80
2022/11/13 06:16:17;;;;;;;22.98;17.75;;;5.90;99.90;;;;;;5085872;28;20036;-86
2022/11/13 06:18:44;;;;;;;27.45;18.25;;;5.80;99.90;;;;;;5087603;28;20513;-82
2022/11/13 06:21:20;;;;;;;29.15;17.33;;;5.70;99.90;;;;;;5117409;27;20036;-82
2022/11/13 06:23:47;;;;;;;25.63;17.73;;;5.70;99.90;;;;;;5101612;28;20460;-80
2022/11/13 06:26:19;;;;;;;22.02;17.48;;;5.60;99.90;;;;;;5068633;28;20047;-83
2022/11/13 06:28:44;;;;;;;22.92;17.35;;;5.50;99.90;;;;;;5115968;27;20040;-80
2022/11/13 06:31:14;;;;;;;27.77;18.17;;;5.50;99.90;;;;;;5089086;28;20067;-84
2022/11/13 06:33:41;;;;;;;27.52;18.58;;;5.40;99.90;;;;;;5121363;27;20533;-85
2022/11/13 06:36:28;;;;;;;29.92;18.33;;;5.40;99.90;;;;;;5096948;28;20040;-85
2022/11/13 06:38:54;;;;;;;24.60;18.25;;;5.40;99.90;;;;;;5118869;27;20040;-80
2022/11/13 06:41:23;;;;;;;29.25;18.90;;;5.30;99.90;;;;;;5091002;28;20621;-80
2022/11/13 06:43:48;;;;;;;25.63;18.90;;;5.40;99.90;;;;;;5058396;28;20044;-84
2022/11/13 06:46:20;;;;;;;29.55;19.42;;;5.30;99.90;;;;;;5083362;28;20069;-83
2022/11/13 06:48:46;;;;;;;31.13;18.13;;;5.30;99.90;;;;;;5083145;28;20083;-82
2022/11/13 06:51:16;;;;;;;28.10;19.23;;;5.30;99.90;;;;;;5120488;27;20045;-81
2022/11/13 06:54:00;;;;;;;29.38;19.30;;;5.20;99.90;;;;;;5106554;28;20071;-80
2022/11/13 06:56:26;;;;;;;31.00;18.77;;;5.30;99.90;;;;;;5089677;28;20036;-80
2022/11/13 06:58:53;;;;;;;24.67;17.90;;;5.20;99.90;;;;;;5075359;28;20812;-82
2022/11/13 07:01:21;;;;;;;30.60;19.17;;;5.20;99.90;;;;;;5086352;28;20036;-78
2022/11/13 07:03:47;;;;;;;26.17;18.50;;;5.20;99.90;;;;;;5108100;27;20032;-87
2022/11/13 07:06:15;;;;;;;28.00;18.85;;;5.20;99.90;;;;;;5117344;27;20036;-80
2022/11/13 07:08:44;;;;;;;29.00;18.58;;;5.10;99.90;;;;;;5064769;28;20626;-83
2022/11/13 07:11:12;;;;;;;29.40;18.60;;;5.10;99.90;;;;;;5121836;27;20100;-80
2022/11/13 07:13:39;;;;;;;26.42;18.08;;;5.10;99.90;;;;;;5087206;28;20040;-81
2022/11/13 07:16:06;;;;;;;26.00;18.15;;;5.20;99.90;;;;;;5083316;28;20064;-82
2022/11/13 07:18:32;;;;;;;27.15;19.27;;;5.20;99.90;;;;;;5066804;28;20064;-84
2022/11/13 07:21:03;;;;;;;23.10;18.02;;;5.20;99.90;;;;;;5118281;27;20428;-78
2022/11/13 07:23:29;;;;;;;33.30;19.60;;;5.10;99.90;;;;;;5096780;28;20513;-81
2022/11/13 07:25:54;;;;;;;28.27;18.65;;;5.10;99.90;;;;;;5078829;28;20048;-81
2022/11/13 07:28:20;;;;;;;24.40;18.23;;;5.10;99.90;;;;;;5066683;28;20123;-81
2022/11/13 07:30:46;;;;;;;28.67;18.40;;;5.20;99.90;;;;;;5078886;28;20343;-78
2022/11/13 07:33:11;;;;;;;29.52;19.20;;;5.10;99.90;;;;;;5067213;28;20048;-80
2022/11/13 07:35:37;;;;;;;26.48;18.48;;;5.20;99.90;;;;;;5066328;28;20031;-83
2022/11/13 07:38:03;;;;;;;25.63;18.35;;;5.20;99.90;;;;;;5086448;28;20044;-81
2022/11/13 07:40:28;;;;;;;30.00;18.13;;;5.30;99.90;;;;;;5066266;28;20047;-81
2022/11/13 07:42:59;;;;;;;22.40;17.17;;;5.20;99.90;;;;;;5099395;28;20040;-78
2022/11/13 07:45:26;;;;;;;28.17;18.23;;;5.30;99.90;;;;;;5083014;28;20175;-77
2022/11/13 07:48:03;;;;;;;22.13;17.20;;;5.30;99.90;;;;;;5102829;28;20042;-78
2022/11/13 07:50:31;;;;;;;23.80;16.88;;;5.40;99.90;;;;;;5110933;28;20040;-81
2022/11/13 07:52:58;;;;;;;21.85;16.98;;;5.40;99.90;;;;;;5115297;27;20054;-79
2022/11/13 07:55:25;;;;;;;25.63;16.77;;;5.50;99.90;;;;;;5100709;28;20045;-82
2022/11/13 07:57:55;;;;;;;24.70;17.13;;;5.50;99.90;;;;;;5099925;28;20063;-81
2022/11/13 08:00:21;;;;;;;26.08;17.55;;;5.60;99.90;;;;;;5089743;28;20039;-79
2022/11/13 08:02:47;;;;;;;23.48;16.55;;;5.60;99.90;;;;;;5067786;28;20036;-84
2022/11/13 08:05:14;;;;;;;25.08;17.38;;;5.70;99.90;;;;;;5068696;28;20044;-79
2022/11/13 08:08:17;;;;;;;25.13;17.58;;;5.60;99.90;;;;;;5070377;28;20040;-78
2022/11/13 08:10:42;;;;;;;24.17;16.92;;;5.80;99.90;;;;;;5089808;28;20458;-84
2022/11/13 08:13:09;;;;;;;22.63;16.20;;;5.90;99.90;;;;;;5098083;28;20064;-80
2022/11/13 08:15:35;;;;;;;24.80;16.77;;;6.00;99.90;;;;;;5069938;28;20043;-78
2022/11/13 08:18:02;;;;;;;24.80;16.05;;;6.00;99.90;;;;;;5057381;28;20475;-79
2022/11/13 08:20:29;;;;;;;20.85;16.20;;;6.10;99.90;;;;;;5079540;28;20032;-78
2022/11/13 08:22:59;;;;;;;22.40;15.38;;;6.00;99.90;;;;;;5077444;28;20050;-77
2022/11/13 08:25:26;;;;;;;18.90;15.32;;;6.20;99.90;;;;;;5063174;28;20159;-79
2022/11/13 08:27:53;;;;;;;19.77;15.35;;;6.30;99.90;;;;;;5116433;27;20126;-79
2022/11/13 08:30:20;;;;;;;22.63;15.13;;;6.30;99.90;;;;;;5083119;28;20044;-80
2022/11/13 08:32:46;;;;;;;21.73;15.48;;;6.40;99.90;;;;;;5085806;28;20048;-78
2022/11/13 08:35:12;;;;;;;18.52;14.23;;;6.50;99.90;;;;;;5081985;28;20048;-80
2022/11/13 08:37:38;;;;;;;19.63;13.98;;;6.60;99.90;;;;;;5087765;28;20186;-83
2022/11/13 08:40:06;;;;;;;20.67;14.77;;;6.70;99.90;;;;;;5129163;27;20044;-82
2022/11/13 08:42:32;;;;;;;20.27;14.80;;;6.80;99.90;;;;;;5124822;27;20062;-83
2022/11/13 08:44:59;;;;;;;21.20;14.60;;;6.90;99.90;;;;;;5074097;28;20032;-82
2022/11/13 08:47:27;;;;;;;16.95;13.95;;;6.90;99.90;;;;;;5083990;28;20058;-81
2022/11/13 08:49:53;;;;;;;16.77;13.68;;;7.00;99.90;;;;;;5092720;28;20066;-81
2022/11/13 08:52:19;;;;;;;23.85;13.73;;;7.10;99.90;;;;;;5095331;28;20040;-79
2022/11/13 08:55:04;;;;;;;19.92;13.20;;;7.20;99.90;;;;;;5076263;28;20067;-80
2022/11/13 08:57:31;;;;;;;18.92;13.68;;;7.30;99.90;;;;;;5100744;28;20048;-80
2022/11/13 08:59:56;;;;;;;22.70;13.65;;;7.30;99.90;;;;;;5091124;28;20131;-83
2022/11/13 09:02:22;;;;;;;19.08;13.43;;;7.50;99.90;;;;;;5085570;28;20122;-79
2022/11/13 09:04:48;;;;;;;17.30;12.70;;;7.60;99.90;;;;;;5064586;28;20557;-80
2022/11/13 09:07:13;;;;;;;19.45;12.98;;;7.70;99.90;;;;;;5082330;28;20067;-80
2022/11/13 09:09:39;;;;;;;18.27;12.75;;;7.70;99.90;;;;;;5065045;28;20043;-82
2022/11/13 09:12:05;;;;;;;15.43;12.50;;;7.70;99.90;;;;;;5063267;28;20044;-77
2022/11/13 09:14:31;;;;;;;16.75;12.15;;;7.90;99.90;;;;;;5067344;28;20093;-79
2022/11/13 09:16:57;;;;;;;15.85;12.48;;;8.00;99.90;;;;;;5075948;28;20152;-82
2022/11/13 09:19:23;;;;;;;17.35;12.00;;;8.00;99.90;;;;;;5095579;28;20032;-85
2022/11/13 09:21:50;;;;;;;27.65;12.02;;;8.10;99.90;;;;;;5098080;28;20432;-82
2022/11/13 09:24:16;;;;;;;31.98;12.35;;;8.20;99.90;;;;;;5079016;28;20426;-82
2022/11/13 09:26:42;;;;;;;25.40;13.23;;;8.30;99.90;;;;;;5097481;28;20079;-82
2022/11/13 09:29:09;;;;;;;17.60;12.23;;;8.20;99.90;;;;;;5098644;28;20051;-79
2022/11/13 09:31:39;;;;;;;16.10;11.90;;;8.30;99.90;;;;;;5096480;28;20070;-82
2022/11/13 09:34:06;;;;;;;16.50;12.13;;;8.40;99.90;;;;;;5099711;28;20324;-79
2022/11/13 09:36:31;;;;;;;15.45;11.75;;;8.40;99.90;;;;;;5100112;28;20111;-79
2022/11/13 09:42:40;;;;;;;14.90;10.68;;;8.60;99.90;;;;;;5108825;28;20043;-78
2022/11/13 09:45:12;;;;;;;14.95;10.82;;;8.70;99.90;;;;;;5088639;28;20146;-79
2022/11/13 09:47:46;;;;;;;17.10;11.10;;;8.80;99.90;;;;;;5089870;28;20155;-80
2022/11/13 09:50:21;;;;;;;14.93;10.20;;;8.80;99.90;;;;;;5085436;28;20070;-83
2022/11/13 09:52:46;;;;;;;;;;;8.80;99.90;;;;;;5099596;28;20031;-85
2022/11/13 09:55:15;;;;;;;16.88;11.10;;;9.00;99.90;;;;;;5093678;28;20010;-81
2022/11/13 09:58:03;;;;;;;15.20;10.93;;;8.90;99.90;;;;;;5093770;28;20143;-81
2022/11/13 10:00:33;;;;;;;15.77;10.45;;;9.10;99.90;;;;;;5089796;28;20062;-80
2022/11/13 10:03:30;;;;;;;13.13;10.18;;;9.20;99.90;;;;;;5078044;28;20429;-81
2022/11/13 10:06:15;;;;;;;14.70;10.10;;;9.30;99.90;;;;;;5129332;27;20056;-85
2022/11/13 10:08:59;;;;;;;16.23;10.73;;;9.30;99.90;;;;;;5088205;28;20040;-86
2022/11/13 10:11:51;;;;;;;14.20;10.98;;;9.50;99.90;;;;;;5118465;27;20148;-84
2022/11/13 10:14:41;;;;;;;13.65;10.32;;;9.50;99.90;;;;;;5085980;28;20052;-86
2022/11/13 10:17:14;;;;;;;12.20;9.43;;;9.80;99.90;;;;;;5100917;28;20760;-83
2022/11/13 10:19:59;;;;;;;12.95;9.55;;;9.70;99.90;;;;;;5092609;28;20043;-83
2022/11/13 10:23:08;;;;;;;13.20;9.25;;;9.90;99.90;;;;;;5082576;28;20092;-82
2022/11/13 10:25:36;;;;;;;12.55;9.32;;;10.00;99.90;;;;;;5087963;28;20074;-81
2022/11/13 10:28:15;;;;;;;13.32;9.20;;;10.10;99.90;;;;;;5120218;27;20031;-82
2022/11/13 10:30:40;;;;;;;12.98;8.80;;;10.20;99.90;;;;;;5099352;28;20078;-81
2022/11/13 10:33:08;;;;;;;15.57;9.57;;;10.50;99.90;;;;;;5076457;28;20471;-79
2022/11/13 10:35:37;;;;;;;14.02;9.20;;;10.40;99.90;;;;;;5096530;28;20074;-79
2022/11/13 10:38:26;;;;;;;12.85;8.68;;;10.40;99.90;;;;;;5101905;28;20046;-82
2022/11/13 10:41:07;;;;;;;19.70;9.23;;;10.40;99.90;;;;;;5082308;28;20044;-82
2022/11/13 10:43:33;;;;;;;21.15;9.23;;;10.40;99.90;;;;;;5090815;28;20395;-86
2022/11/13 10:46:01;;;;;;;12.43;8.77;;;10.40;99.90;;;;;;5089039;28;20040;-81
2022/11/13 10:48:31;;;;;;;11.80;8.77;;;10.50;99.90;;;;;;5121465;27;20044;-83
2022/11/13 10:51:03;;;;;;;11.88;9.10;;;10.60;99.90;;;;;;5121148;27;20115;-85
2022/11/13 10:53:40;;;;;;;16.15;9.32;;;10.70;99.90;;;;;;5092679;28;20086;-81
2022/11/13 10:56:34;;;;;;;13.23;10.00;;;10.60;99.90;;;;;;5077799;28;20047;-84
2022/11/13 10:59:12;;;;;;;13.70;10.40;;;10.50;99.90;;;;;;5084440;28;20067;-82
2022/11/13 11:01:39;;;;;;;10.85;8.95;;;10.50;99.90;;;;;;5083977;28;20040;-81
2022/11/13 11:04:09;;;;;;;48.15;10.95;;;10.50;99.90;;;;;;5076398;28;20036;-86
2022/11/13 11:06:37;;;;;;;12.73;8.90;;;10.50;99.90;;;;;;5124794;27;20528;-85
2022/11/13 11:09:12;;;;;;;13.45;8.93;;;10.50;99.90;;;;;;5092435;28;20067;-84
2022/11/13 11:14:34;;;;;;;24.13;9.27;;;10.50;99.90;;;;;;5109822;28;20469;-80
2022/11/13 11:17:02;;;;;;;12.98;9.88;;;10.50;99.90;;;;;;5070667;28;20454;-81
2022/11/13 11:19:34;;;;;;;12.52;10.13;;;10.50;99.90;;;;;;5093683;28;20052;-83
2022/11/13 11:22:15;;;;;;;13.45;10.63;;;10.40;99.90;;;;;;5093693;28;20069;-81
2022/11/13 11:24:55;;;;;;;14.55;10.43;;;10.40;99.90;;;;;;5070502;28;20455;-82
2022/11/13 11:27:40;;;;;;;15.02;10.40;;;10.40;99.90;;;;;;5086980;28;20074;-82
2022/11/13 11:30:19;;;;;;;29.33;11.15;;;10.50;99.90;;;;;;5088599;28;20468;-81
2022/11/13 11:33:27;;;;;;;17.25;10.98;;;10.50;99.90;;;;;;5069786;28;20050;-83
2022/11/13 11:36:02;;;;;;;15.85;10.60;;;10.50;99.90;;;;;;5088414;28;20036;-84
2022/11/13 11:38:54;;;;;;;11.18;9.55;;;10.80;99.90;;;;;;5077547;28;20040;-82
2022/11/13 11:41:27;;;;;;;15.52;10.88;;;10.90;99.90;;;;;;5055627;28;20052;-83
2022/11/13 11:44:00;;;;;;;47.28;11.23;;;10.80;99.90;;;;;;5075357;28;20047;-83
2022/11/13 11:46:28;;;;;;;15.63;10.68;;;10.90;99.90;;;;;;5076123;28;20105;-82
2022/11/13 11:49:00;;;;;;;13.57;9.35;;;11.00;99.90;;;;;;5083984;28;20056;-80
2022/11/13 11:51:33;;;;;;;14.27;9.77;;;11.10;99.90;;;;;;5084754;28;20052;-80
2022/11/13 11:54:21;;;;;;;13.38;9.30;;;11.20;99.90;;;;;;5097842;28;20052;-80
2022/11/13 11:56:52;;;;;;;12.85;8.73;;;11.40;99.90;;;;;;5079337;28;20046;-80
2022/11/13 11:59:30;;;;;;;11.02;9.23;;;11.50;99.90;;;;;;5097216;28;20048;-81
2022/11/13 12:02:17;;;;;;;15.20;10.10;;;11.50;99.90;;;;;;5090914;28;20110;-83
2022/11/13 12:05:05;;;;;;;14.85;9.70;;;11.60;99.90;;;;;;5035451;28;20048;-80
2022/11/13 12:08:00;;;;;;;13.02;8.95;;;11.60;99.90;;;;;;5038848;28;20047;-81
2022/11/13 12:10:44;;;;;;;11.98;7.68;;;11.70;99.90;;;;;;5033651;28;20057;-84
2022/11/13 12:13:17;;;;;;;11.52;9.02;;;11.90;99.90;;;;;;5031526;28;20055;-80
2022/11/13 12:15:55;;;;;;;15.67;8.87;;;12.20;99.90;;;;;;5050850;28;20056;-81
2022/11/13 12:18:48;;;;;;;13.10;9.57;;;12.20;99.90;;;;;;5029061;28;20049;-81
2022/11/13 12:21:32;;;;;;;12.00;8.90;;;12.30;99.90;;;;;;5031236;28;20049;-79
2022/11/13 12:24:39;;;;;;;10.55;7.88;;;12.40;99.90;;;;;;5033520;28;20049;-81
2022/11/13 12:27:31;;;;;;;10.82;8.75;;;12.40;99.90;;;;;;5051230;28;20041;-81
2022/11/13 12:30:02;;;;;;;12.10;8.40;;;12.30;99.90;;;;;;5054720;28;20411;-80
2022/11/13 12:32:52;;;;;;;11.23;7.50;;;12.40;99.90;;;;;;5067343;28;20075;-80
2022/11/13 12:35:20;;;;;;;11.70;7.55;;;12.50;99.90;;;;;;5018451;28;20052;-81
2022/11/13 12:38:15;;;;;;;10.25;7.60;;;12.50;99.90;;;;;;5024817;28;20172;-86
2022/11/13 12:41:10;;;;;;;;;;;12.60;99.90;;;;;;5022509;28;20056;-85
2022/11/13 12:44:02;;;;;;;14.65;7.28;;;12.60;99.90;;;;;;5065886;28;20030;-83
2022/11/13 12:46:39;;;;;;;10.07;7.80;;;12.60;99.90;;;;;;5064460;28;20047;-82
2022/11/13 12:49:35;;;;;;;11.23;7.60;;;12.70;99.90;;;;;;5099640;28;20052;-81
2022/11/13 12:52:02;;;;;;;10.02;7.28;;;12.70;99.90;;;;;;5058324;28;20397;-86
2022/11/13 12:54:35;;;;;;;10.93;7.38;;;12.70;99.90;;;;;;5052429;28;21582;-82
2022/11/13 12:57:17;;;;;;;11.63;7.60;;;12.70;99.90;;;;;;5069860;28;20044;-82
2022/11/13 12:59:47;;;;;;;11.70;7.68;;;12.40;99.90;;;;;;5037600;28;20113;-82